Terminal Aerodrome Forecast
Issued by NWS

Home | Current Version | Previous Version | Text Only | Print | Product List | Glossary Off
Versions: 1 2 3 4 5 6 7 8 9 10 11 12 13 14 15 16

000
FTUS43 KBIS 251300 AAA
TAFMOT
TAF AMD
KMOT 251337Z 2514/2612 03011KT 6SM -SN SCT020 OVC070
      TEMPO 2514/2516 3SM -SN BKN020
     FM251600 35014KT P6SM SCT020 BKN120
     FM251900 33013G18KT P6SM SKC
     FM260000 29009KT P6SM SKC=

USA.gov is the U.S. government's official web portal to all federal, state and local government web resources and services.